Alamosa, CO

9:27 PM MDT on August 03, 2015 (GMT -0600)
San Luis Valley Regional / Bergman Field | | Change Station
CLOSE
Current Station
Airport
Location: Alamosa,
Elevation: 7543 ft
Nearby Weather Stations

Elev 7543 ft 37.44 °N, 105.86 °W | Updated 35 minutes ago

Partly Cloudy
Partly Cloudy
59 °F
Feels Like 59 °F
N
8
Wind Variable Wind from SW

Today
High -- | Low -- °F
--% Chance of Precip.
Yesterday
High -- | Low -- °F
Precip. -- in
6:09 AM 8:09 PM
Waning Gibbous, 81% visible
Pressure 30.01 in
Visibility 10.0 miles
Clouds Scattered Clouds 8000 ft
Dew Point 52 °F
Humidity 78%
Rainfall 0.10 in
Snow Depth Not available.
UV 0 out of 12
Pollen 6.80 out of 12
Air Quality Not available.
Flu Activity Not available.
METAR KALS 040252Z AUTO 22007KT 10SM SCT080 15/11 A3025 RMK AO2 SLP161 60000 T01500111 53007

More Conditions Fewer Conditions

Pressure 30.01 in
Visibility 10.0 miles
Clouds Scattered Clouds 8000 ft
Dew Point 52 °F
Humidity 78%
Rainfall 0.10 in
Snow Depth Not available.
UV 0 out of 12
Pollen 6.80 out of 12
Air Quality Not available.
Flu Activity Not available.
METAR KALS 040252Z AUTO 22007KT 10SM SCT080 15/11 A3025 RMK AO2 SLP161 60000 T01500111 53007

More Conditions Fewer Conditions

10-Day Weather Forecast

×

Almanac

Astronomy

Aug. 03, 2015 Rise Set
Actual Time
Civil Twilight
Nautical Twilight
Astronomical Twilight
Moon
Length of Visible Light
Length of Day
Tomorrow will be .
, % of the Moon is Illuminated

Today's Extremes

State Highs State Lows

Community

WunderPhotos

Upload Photos

1,843,838 photos uploaded!

WunderBlogs® & News

Nearby

Air Quality

  Air Quality AQ Index Pollutant
Not available.

Snow Depth

Station Depth Elevation

Earthquake Activity

City Distance Mag. Time & Date
Minimum magnitude displayed is 2.5.

Coastal Water Temperatures

Place Temperature

Stations

Nearby Weather Stations

Station Location Temp. Windchill Dew Point Humidity Wind Precip. Elev Updated Type